sensor_id;sensor_type;location;lat;lon;timestamp;pressure;altitude;pressure_sealevel;temperature;humidity
2841;BME280;53423;49.224;12.074;2023-02-11T00:01:23;99728.25;;;-1.68;64.91
2841;BME280;53423;49.224;12.074;2023-02-11T00:03:52;99720.53;;;-1.68;64.65
2841;BME280;53423;49.224;12.074;2023-02-11T00:06:21;99720.63;;;-1.71;64.83
2841;BME280;53423;49.224;12.074;2023-02-11T00:08:49;99726.72;;;-1.75;64.84
2841;BME280;53423;49.224;12.074;2023-02-11T00:11:19;99721.00;;;-1.86;65.06
2841;BME280;53423;49.224;12.074;2023-02-11T00:13:47;99722.06;;;-1.94;65.34
2841;BME280;53423;49.224;12.074;2023-02-11T00:16:18;99723.69;;;-1.90;65.30
2841;BME280;53423;49.224;12.074;2023-02-11T00:18:47;99717.88;;;-1.97;65.13
2841;BME280;53423;49.224;12.074;2023-02-11T00:21:18;99713.56;;;-1.96;65.25
2841;BME280;53423;49.224;12.074;2023-02-11T00:23:46;99704.75;;;-1.86;64.79
2841;BME280;53423;49.224;12.074;2023-02-11T00:26:16;99709.34;;;-1.99;63.85
2841;BME280;53423;49.224;12.074;2023-02-11T00:28:44;99704.25;;;-2.00;64.90
2841;BME280;53423;49.224;12.074;2023-02-11T00:31:13;99695.72;;;-2.02;64.82
2841;BME280;53423;49.224;12.074;2023-02-11T00:33:43;99705.19;;;-2.04;64.93
2841;BME280;53423;49.224;12.074;2023-02-11T00:36:13;99708.56;;;-2.02;65.01
2841;BME280;53423;49.224;12.074;2023-02-11T00:38:42;99708.56;;;-2.02;64.80
2841;BME280;53423;49.224;12.074;2023-02-11T00:41:10;99700.91;;;-2.04;64.64
2841;BME280;53423;49.224;12.074;2023-02-11T00:43:39;99709.47;;;-2.05;64.30
2841;BME280;53423;49.224;12.074;2023-02-11T00:46:07;99704.50;;;-2.11;64.38
2841;BME280;53423;49.224;12.074;2023-02-11T00:48:35;99710.63;;;-2.16;64.48
2841;BME280;53423;49.224;12.074;2023-02-11T00:51:05;99712.69;;;-2.30;64.67
2841;BME280;53423;49.224;12.074;2023-02-11T00:53:33;99717.50;;;-2.17;64.63
2841;BME280;53423;49.224;12.074;2023-02-11T00:56:02;99709.63;;;-2.11;64.47
2841;BME280;53423;49.224;12.074;2023-02-11T00:58:30;99709.59;;;-2.09;65.50
2841;BME280;53423;49.224;12.074;2023-02-11T01:00:58;99716.09;;;-1.95;65.16
2841;BME280;53423;49.224;12.074;2023-02-11T01:03:26;99707.31;;;-1.86;64.57
2841;BME280;53423;49.224;12.074;2023-02-11T01:05:54;99709.44;;;-2.02;64.61
2841;BME280;53423;49.224;12.074;2023-02-11T01:08:23;99707.84;;;-2.07;64.85
2841;BME280;53423;49.224;12.074;2023-02-11T01:10:56;99691.78;;;-2.15;64.91
2841;BME280;53423;49.224;12.074;2023-02-11T01:13:24;99691.31;;;-1.97;65.01
2841;BME280;53423;49.224;12.074;2023-02-11T01:15:53;99680.09;;;-1.93;64.49
2841;BME280;53423;49.224;12.074;2023-02-11T01:18:21;99684.78;;;-2.09;64.08
2841;BME280;53423;49.224;12.074;2023-02-11T01:20:49;99687.88;;;-1.96;63.75
2841;BME280;53423;49.224;12.074;2023-02-11T01:23:17;99701.94;;;-2.11;65.07
2841;BME280;53423;49.224;12.074;2023-02-11T01:25:47;99686.22;;;-1.99;65.23
2841;BME280;53423;49.224;12.074;2023-02-11T01:28:16;99669.16;;;-2.01;65.22
2841;BME280;53423;49.224;12.074;2023-02-11T01:30:45;99669.03;;;-1.95;65.15
2841;BME280;53423;49.224;12.074;2023-02-11T01:33:13;99660.97;;;-1.82;65.58
2841;BME280;53423;49.224;12.074;2023-02-11T01:35:42;99666.38;;;-1.60;65.70
2841;BME280;53423;49.224;12.074;2023-02-11T01:38:15;99652.44;;;-1.52;64.69
2841;BME280;53423;49.224;12.074;2023-02-11T01:40:47;99651.09;;;-1.66;65.03
2841;BME280;53423;49.224;12.074;2023-02-11T01:43:16;99646.91;;;-1.69;65.56
2841;BME280;53423;49.224;12.074;2023-02-11T01:46:17;99653.53;;;-1.60;65.36
2841;BME280;53423;49.224;12.074;2023-02-11T01:48:49;99640.91;;;-1.69;65.66
2841;BME280;53423;49.224;12.074;2023-02-11T01:51:23;99637.63;;;-1.74;65.25
2841;BME280;53423;49.224;12.074;2023-02-11T01:53:52;99626.88;;;-1.90;65.74
2841;BME280;53423;49.224;12.074;2023-02-11T01:56:43;99633.13;;;-1.98;65.89
2841;BME280;53423;49.224;12.074;2023-02-11T01:59:33;99625.00;;;-1.82;65.54
2841;BME280;53423;49.224;12.074;2023-02-11T02:02:07;99627.56;;;-1.82;65.97
2841;BME280;53423;49.224;12.074;2023-02-11T02:04:41;99629.91;;;-1.74;65.99
2841;BME280;53423;49.224;12.074;2023-02-11T02:07:18;99628.00;;;-1.68;66.08
2841;BME280;53423;49.224;12.074;2023-02-11T02:09:51;99628.91;;;-1.69;66.26
2841;BME280;53423;49.224;12.074;2023-02-11T02:12:23;99637.47;;;-1.68;65.48
2841;BME280;53423;49.224;12.074;2023-02-11T02:15:19;99645.13;;;-1.67;65.79
2841;BME280;53423;49.224;12.074;2023-02-11T02:17:56;99644.28;;;-1.67;66.18
2841;BME280;53423;49.224;12.074;2023-02-11T02:23:46;99639.59;;;-1.84;66.12
2841;BME280;53423;49.224;12.074;2023-02-11T02:26:37;99639.94;;;-1.97;66.36
2841;BME280;53423;49.224;12.074;2023-02-11T02:29:35;99640.03;;;-2.00;67.33
2841;BME280;53423;49.224;12.074;2023-02-11T02:32:29;99640.19;;;-1.74;66.73
2841;BME280;53423;49.224;12.074;2023-02-11T02:35:07;99632.41;;;-1.71;66.93
2841;BME280;53423;49.224;12.074;2023-02-11T02:37:41;99632.44;;;-1.73;66.80
2841;BME280;53423;49.224;12.074;2023-02-11T02:40:14;99634.00;;;-1.67;66.71
2841;BME280;53423;49.224;12.074;2023-02-11T02:42:44;99627.25;;;-1.71;65.94
2841;BME280;53423;49.224;12.074;2023-02-11T02:45:13;99629.72;;;-1.67;65.92
2841;BME280;53423;49.224;12.074;2023-02-11T02:47:42;99617.19;;;-1.79;66.36
2841;BME280;53423;49.224;12.074;2023-02-11T02:50:13;99611.53;;;-1.91;66.43
2841;BME280;53423;49.224;12.074;2023-02-11T02:52:51;99603.91;;;-1.94;66.84
2841;BME280;53423;49.224;12.074;2023-02-11T02:55:32;99595.28;;;-1.92;66.51
2841;BME280;53423;49.224;12.074;2023-02-11T03:01:07;99590.84;;;-1.55;66.82
2841;BME280;53423;49.224;12.074;2023-02-11T03:03:42;99597.31;;;-1.42;66.85
2841;BME280;53423;49.224;12.074;2023-02-11T03:06:16;99599.75;;;-1.37;66.84
2841;BME280;53423;49.224;12.074;2023-02-11T03:08:51;99589.97;;;-1.24;67.09
2841;BME280;53423;49.224;12.074;2023-02-11T03:11:22;99582.84;;;-1.46;67.05
2841;BME280;53423;49.224;12.074;2023-02-11T03:13:51;99600.22;;;-1.54;67.15
2841;BME280;53423;49.224;12.074;2023-02-11T03:16:24;99603.25;;;-1.70;67.41
2841;BME280;53423;49.224;12.074;2023-02-11T03:18:58;99608.88;;;-1.58;67.58
2841;BME280;53423;49.224;12.074;2023-02-11T03:21:31;99617.94;;;-1.43;66.92
2841;BME280;53423;49.224;12.074;2023-02-11T03:24:06;99602.31;;;-1.37;66.56
2841;BME280;53423;49.224;12.074;2023-02-11T03:26:38;99604.94;;;-1.39;67.35
2841;BME280;53423;49.224;12.074;2023-02-11T03:29:09;99606.56;;;-1.36;67.56
2841;BME280;53423;49.224;12.074;2023-02-11T03:31:46;99603.69;;;-1.26;67.12
2841;BME280;53423;49.224;12.074;2023-02-11T03:34:23;99606.25;;;-1.26;66.90
2841;BME280;53423;49.224;12.074;2023-02-11T03:36:58;99610.56;;;-1.26;67.48
2841;BME280;53423;49.224;12.074;2023-02-11T03:39:31;99610.28;;;-1.17;67.18
2841;BME280;53423;49.224;12.074;2023-02-11T03:42:01;99615.34;;;-1.14;67.02
2841;BME280;53423;49.224;12.074;2023-02-11T03:44:34;99606.47;;;-1.04;67.14
2841;BME280;53423;49.224;12.074;2023-02-11T03:47:04;99601.25;;;-1.01;67.54
2841;BME280;53423;49.224;12.074;2023-02-11T03:49:37;99597.38;;;-0.86;67.03
2841;BME280;53423;49.224;12.074;2023-02-11T03:52:07;99595.66;;;-0.87;66.66
2841;BME280;53423;49.224;12.074;2023-02-11T03:54:37;99595.84;;;-0.93;66.71
2841;BME280;53423;49.224;12.074;2023-02-11T03:57:07;99592.44;;;-0.94;66.57
2841;BME280;53423;49.224;12.074;2023-02-11T03:59:49;99593.03;;;-0.84;66.60
2841;BME280;53423;49.224;12.074;2023-02-11T04:02:17;99593.84;;;-0.84;66.38
2841;BME280;53423;49.224;12.074;2023-02-11T04:04:47;99583.91;;;-0.94;66.81
2841;BME280;53423;49.224;12.074;2023-02-11T04:07:15;99577.03;;;-0.95;67.03
2841;BME280;53423;49.224;12.074;2023-02-11T04:09:43;99576.13;;;-0.93;66.74
2841;BME280;53423;49.224;12.074;2023-02-11T04:12:11;99576.56;;;-0.80;66.55
2841;BME280;53423;49.224;12.074;2023-02-11T04:14:38;99575.19;;;-0.90;66.61
2841;BME280;53423;49.224;12.074;2023-02-11T04:17:06;99574.69;;;-0.75;66.40
2841;BME280;53423;49.224;12.074;2023-02-11T04:19:34;99577.53;;;-0.83;66.37
2841;BME280;53423;49.224;12.074;2023-02-11T04:22:04;99569.66;;;-0.78;67.04
2841;BME280;53423;49.224;12.074;2023-02-11T04:24:32;99576.19;;;-0.68;66.97
2841;BME280;53423;49.224;12.074;2023-02-11T04:27:00;99574.97;;;-0.57;66.47
2841;BME280;53423;49.224;12.074;2023-02-11T04:29:28;99579.34;;;-0.60;66.67
2841;BME280;53423;49.224;12.074;2023-02-11T04:31:56;99574.16;;;-0.59;66.78
2841;BME280;53423;49.224;12.074;2023-02-11T04:34:24;99568.84;;;-0.53;66.95
2841;BME280;53423;49.224;12.074;2023-02-11T04:36:52;99544.75;;;-0.52;65.83
2841;BME280;53423;49.224;12.074;2023-02-11T04:39:22;99551.69;;;-0.80;67.47
2841;BME280;53423;49.224;12.074;2023-02-11T04:41:50;99552.97;;;-0.67;67.39
2841;BME280;53423;49.224;12.074;2023-02-11T04:44:17;99551.69;;;-0.54;67.14
2841;BME280;53423;49.224;12.074;2023-02-11T04:46:46;99542.69;;;-0.41;66.63
2841;BME280;53423;49.224;12.074;2023-02-11T04:49:14;99558.38;;;-0.48;66.61
2841;BME280;53423;49.224;12.074;2023-02-11T04:51:43;99548.81;;;-0.45;66.84
2841;BME280;53423;49.224;12.074;2023-02-11T04:54:14;99541.16;;;-0.46;66.32
2841;BME280;53423;49.224;12.074;2023-02-11T04:56:44;99560.19;;;-0.52;66.66
2841;BME280;53423;49.224;12.074;2023-02-11T04:59:12;99553.63;;;-0.60;66.86
2841;BME280;53423;49.224;12.074;2023-02-11T05:01:40;99562.25;;;-0.61;66.99
2841;BME280;53423;49.224;12.074;2023-02-11T05:04:08;99557.06;;;-0.35;66.37
2841;BME280;53423;49.224;12.074;2023-02-11T05:06:37;99564.41;;;-0.23;66.05
2841;BME280;53423;49.224;12.074;2023-02-11T05:09:05;99573.13;;;-0.27;66.10
2841;BME280;53423;49.224;12.074;2023-02-11T05:11:33;99565.94;;;-0.18;65.92
2841;BME280;53423;49.224;12.074;2023-02-11T05:14:03;99570.81;;;-0.10;65.95
2841;BME280;53423;49.224;12.074;2023-02-11T05:16:32;99574.41;;;-0.14;66.34
2841;BME280;53423;49.224;12.074;2023-02-11T05:19:00;99562.31;;;-0.12;66.31
2841;BME280;53423;49.224;12.074;2023-02-11T05:21:28;99564.56;;;-0.28;67.03
2841;BME280;53423;49.224;12.074;2023-02-11T05:23:56;99543.47;;;-0.39;67.15
2841;BME280;53423;49.224;12.074;2023-02-11T05:26:24;99536.63;;;-0.40;67.27
2841;BME280;53423;49.224;12.074;2023-02-11T05:28:52;99529.47;;;-0.32;67.53
2841;BME280;53423;49.224;12.074;2023-02-11T05:31:21;99536.75;;;-0.18;66.72
2841;BME280;53423;49.224;12.074;2023-02-11T05:33:49;99544.06;;;-0.06;66.20
2841;BME280;53423;49.224;12.074;2023-02-11T05:36:17;99536.38;;;-0.08;66.44
2841;BME280;53423;49.224;12.074;2023-02-11T05:38:45;99536.59;;;-0.14;66.56
2841;BME280;53423;49.224;12.074;2023-02-11T05:41:13;99538.50;;;-0.19;66.97
2841;BME280;53423;49.224;12.074;2023-02-11T05:43:41;99531.59;;;-0.18;67.23
2841;BME280;53423;49.224;12.074;2023-02-11T05:46:09;99519.09;;;-0.29;67.40
2841;BME280;53423;49.224;12.074;2023-02-11T05:48:38;99504.84;;;-0.39;68.11
2841;BME280;53423;49.224;12.074;2023-02-11T05:51:06;99520.75;;;-0.28;67.56
2841;BME280;53423;49.224;12.074;2023-02-11T05:53:34;99526.38;;;-0.17;67.27
2841;BME280;53423;49.224;12.074;2023-02-11T05:56:02;99518.13;;;-0.02;66.72
2841;BME280;53423;49.224;12.074;2023-02-11T05:58:31;99521.47;;;0.00;66.12
2841;BME280;53423;49.224;12.074;2023-02-11T06:00:59;99518.91;;;0.00;66.29
2841;BME280;53423;49.224;12.074;2023-02-11T06:03:27;99510.19;;;0.05;65.94
2841;BME280;53423;49.224;12.074;2023-02-11T06:05:56;99504.34;;;0.23;65.29
2841;BME280;53423;49.224;12.074;2023-02-11T06:08:24;99517.00;;;0.29;65.04
2841;BME280;53423;49.224;12.074;2023-02-11T06:10:52;99519.28;;;0.38;64.43
2841;BME280;53423;49.224;12.074;2023-02-11T06:13:20;99517.66;;;0.35;65.43
2841;BME280;53423;49.224;12.074;2023-02-11T06:15:54;99524.53;;;0.35;64.84
2841;BME280;53423;49.224;12.074;2023-02-11T06:18:22;99508.22;;;0.34;65.17
2841;BME280;53423;49.224;12.074;2023-02-11T06:20:51;99500.31;;;0.16;65.02
2841;BME280;53423;49.224;12.074;2023-02-11T06:23:20;99504.59;;;-0.08;66.24
2841;BME280;53423;49.224;12.074;2023-02-11T06:25:48;99498.03;;;0.08;66.66
2841;BME280;53423;49.224;12.074;2023-02-11T06:28:17;99507.78;;;0.23;66.17
2841;BME280;53423;49.224;12.074;2023-02-11T06:30:45;99511.66;;;0.35;65.27
2841;BME280;53423;49.224;12.074;2023-02-11T06:33:13;99522.53;;;0.43;65.10
2841;BME280;53423;49.224;12.074;2023-02-11T06:35:42;99519.66;;;0.50;64.95
2841;BME280;53423;49.224;12.074;2023-02-11T06:38:09;99516.50;;;0.42;65.15
2841;BME280;53423;49.224;12.074;2023-02-11T06:40:39;99522.19;;;0.52;64.48
2841;BME280;53423;49.224;12.074;2023-02-11T06:43:07;99523.00;;;0.52;65.19
2841;BME280;53423;49.224;12.074;2023-02-11T06:45:35;99517.16;;;0.49;65.43
2841;BME280;53423;49.224;12.074;2023-02-11T06:48:03;99516.56;;;0.64;65.02
2841;BME280;53423;49.224;12.074;2023-02-11T06:50:34;99512.81;;;0.26;65.59
2841;BME280;53423;49.224;12.074;2023-02-11T06:53:02;99504.53;;;0.41;64.34
2841;BME280;53423;49.224;12.074;2023-02-11T06:55:29;99501.31;;;0.58;64.45
2841;BME280;53423;49.224;12.074;2023-02-11T06:57:59;99501.78;;;0.67;63.57
2841;BME280;53423;49.224;12.074;2023-02-11T07:00:27;99500.66;;;0.74;63.76
2841;BME280;53423;49.224;12.074;2023-02-11T07:02:55;99493.94;;;0.49;64.34
2841;BME280;53423;49.224;12.074;2023-02-11T07:05:23;99510.97;;;0.53;64.24
2841;BME280;53423;49.224;12.074;2023-02-11T07:07:51;99510.59;;;0.40;64.30
2841;BME280;53423;49.224;12.074;2023-02-11T07:10:19;99496.63;;;0.67;63.41
2841;BME280;53423;49.224;12.074;2023-02-11T07:12:47;99512.03;;;0.47;63.86
2841;BME280;53423;49.224;12.074;2023-02-11T07:15:16;99504.94;;;0.52;63.11
2841;BME280;53423;49.224;12.074;2023-02-11T07:17:44;99505.09;;;0.26;64.77
2841;BME280;53423;49.224;12.074;2023-02-11T07:20:12;99508.66;;;0.22;64.98
2841;BME280;53423;49.224;12.074;2023-02-11T07:22:41;99506.63;;;0.76;63.97
2841;BME280;53423;49.224;12.074;2023-02-11T07:25:09;99515.13;;;0.78;63.31
2841;BME280;53423;49.224;12.074;2023-02-11T07:27:36;99514.75;;;0.89;63.19
2841;BME280;53423;49.224;12.074;2023-02-11T07:30:05;99524.56;;;1.22;62.33
2841;BME280;53423;49.224;12.074;2023-02-11T07:32:34;99518.22;;;1.31;61.83
2841;BME280;53423;49.224;12.074;2023-02-11T07:35:03;99523.91;;;1.39;61.97
2841;BME280;53423;49.224;12.074;2023-02-11T07:37:32;99516.34;;;1.55;61.55
2841;BME280;53423;49.224;12.074;2023-02-11T07:40:00;99521.75;;;1.49;61.76
2841;BME280;53423;49.224;12.074;2023-02-11T07:42:28;99532.47;;;1.60;61.63
2841;BME280;53423;49.224;12.074;2023-02-11T07:44:56;99537.28;;;1.69;60.79
2841;BME280;53423;49.224;12.074;2023-02-11T07:47:25;99539.38;;;1.81;60.73
2841;BME280;53423;49.224;12.074;2023-02-11T07:49:55;99535.13;;;1.98;60.51
2841;BME280;53423;49.224;12.074;2023-02-11T07:52:23;99541.56;;;2.10;60.41
2841;BME280;53423;49.224;12.074;2023-02-11T07:54:50;99533.47;;;1.97;60.37
2841;BME280;53423;49.224;12.074;2023-02-11T07:57:18;99528.03;;;2.03;60.31
2841;BME280;53423;49.224;12.074;2023-02-11T07:59:46;99520.91;;;2.08;60.95
2841;BME280;53423;49.224;12.074;2023-02-11T08:02:14;99523.50;;;2.08;60.26
2841;BME280;53423;49.224;12.074;2023-02-11T08:04:44;99525.84;;;2.14;60.67
2841;BME280;53423;49.224;12.074;2023-02-11T08:07:15;99525.03;;;2.51;59.29
2841;BME280;53423;49.224;12.074;2023-02-11T08:09:43;99540.22;;;2.40;59.80
2841;BME280;53423;49.224;12.074;2023-02-11T08:12:11;99534.47;;;2.71;58.85
2841;BME280;53423;49.224;12.074;2023-02-11T08:14:39;99548.34;;;3.42;56.92
2841;BME280;53423;49.224;12.074;2023-02-11T08:17:07;99546.59;;;3.07;57.93
2841;BME280;53423;49.224;12.074;2023-02-11T08:19:35;99557.19;;;3.20;58.43
2841;BME280;53423;49.224;12.074;2023-02-11T08:22:03;99555.56;;;3.36;56.72
2841;BME280;53423;49.224;12.074;2023-02-11T08:24:32;99552.69;;;3.59;56.87
2841;BME280;53423;49.224;12.074;2023-02-11T08:27:00;99554.97;;;3.65;56.46
2841;BME280;53423;49.224;12.074;2023-02-11T08:29:28;99537.16;;;4.74;53.75
2841;BME280;53423;49.224;12.074;2023-02-11T08:31:56;99532.94;;;5.49;51.75
2841;BME280;53423;49.224;12.074;2023-02-11T08:34:24;99525.19;;;4.87;52.69
2841;BME280;53423;49.224;12.074;2023-02-11T08:36:52;99529.81;;;4.82;52.60
2841;BME280;53423;49.224;12.074;2023-02-11T08:39:21;99534.81;;;4.69;52.73
2841;BME280;53423;49.224;12.074;2023-02-11T08:41:52;99537.13;;;4.43;53.19
2841;BME280;53423;49.224;12.074;2023-02-11T08:44:20;99536.38;;;3.91;54.38
2841;BME280;53423;49.224;12.074;2023-02-11T08:46:49;99533.00;;;3.55;56.03
2841;BME280;53423;49.224;12.074;2023-02-11T08:49:17;99534.91;;;3.51;55.45
2841;BME280;53423;49.224;12.074;2023-02-11T08:51:46;99536.94;;;3.28;56.06
2841;BME280;53423;49.224;12.074;2023-02-11T08:54:14;99546.09;;;3.35;56.85
2841;BME280;53423;49.224;12.074;2023-02-11T08:56:42;99536.53;;;3.54;56.27
2841;BME280;53423;49.224;12.074;2023-02-11T08:59:13;99537.22;;;3.57;56.83
2841;BME280;53423;49.224;12.074;2023-02-11T09:01:43;99550.72;;;3.64;56.55
2841;BME280;53423;49.224;12.074;2023-02-11T09:04:12;99542.63;;;3.70;56.49
2841;BME280;53423;49.224;12.074;2023-02-11T09:06:40;99535.44;;;3.75;56.75
2841;BME280;53423;49.224;12.074;2023-02-11T09:09:10;99537.06;;;3.60;57.08
2841;BME280;53423;49.224;12.074;2023-02-11T09:11:40;99536.75;;;3.49;58.35
2841;BME280;53423;49.224;12.074;2023-02-11T09:14:16;99529.88;;;3.48;58.63
2841;BME280;53423;49.224;12.074;2023-02-11T09:16:45;99539.88;;;3.56;58.12
2841;BME280;53423;49.224;12.074;2023-02-11T09:19:14;99539.66;;;3.25;57.35
2841;BME280;53423;49.224;12.074;2023-02-11T09:21:42;99535.75;;;3.16;58.74
2841;BME280;53423;49.224;12.074;2023-02-11T09:24:10;99543.13;;;3.25;57.74
2841;BME280;53423;49.224;12.074;2023-02-11T09:26:40;99542.34;;;3.23;58.88
2841;BME280;53423;49.224;12.074;2023-02-11T09:29:08;99535.00;;;2.96;59.48
2841;BME280;53423;49.224;12.074;2023-02-11T09:31:37;99524.31;;;3.03;58.32
2841;BME280;53423;49.224;12.074;2023-02-11T09:34:05;99529.22;;;2.91;58.71
2841;BME280;53423;49.224;12.074;2023-02-11T09:36:35;99537.56;;;2.97;59.59
2841;BME280;53423;49.224;12.074;2023-02-11T09:39:05;99530.75;;;2.95;59.51
2841;BME280;53423;49.224;12.074;2023-02-11T09:41:42;99519.53;;;2.59;60.23
2841;BME280;53423;49.224;12.074;2023-02-11T09:44:17;99533.28;;;2.96;60.08
2841;BME280;53423;49.224;12.074;2023-02-11T09:46:53;99532.41;;;3.14;58.88
2841;BME280;53423;49.224;12.074;2023-02-11T09:49:24;99536.59;;;2.81;59.74
2841;BME280;53423;49.224;12.074;2023-02-11T09:51:58;99535.00;;;3.14;59.69
2841;BME280;53423;49.224;12.074;2023-02-11T09:54:34;99538.63;;;3.29;59.73
2841;BME280;53423;49.224;12.074;2023-02-11T09:57:06;99535.91;;;3.49;58.28
2841;BME280;53423;49.224;12.074;2023-02-11T09:59:53;99528.53;;;3.75;57.33
2841;BME280;53423;49.224;12.074;2023-02-11T10:02:28;99534.84;;;3.87;57.00
2841;BME280;53423;49.224;12.074;2023-02-11T10:05:16;99531.03;;;3.77;57.74
2841;BME280;53423;49.224;12.074;2023-02-11T10:07:54;99515.03;;;3.69;57.82
2841;BME280;53423;49.224;12.074;2023-02-11T10:10:37;99514.00;;;3.20;60.06
2841;BME280;53423;49.224;12.074;2023-02-11T10:13:37;99521.34;;;3.63;58.76
2841;BME280;53423;49.224;12.074;2023-02-11T10:16:22;99523.31;;;3.41;58.75
2841;BME280;53423;49.224;12.074;2023-02-11T10:19:08;99513.63;;;3.45;59.01
2841;BME280;53423;49.224;12.074;2023-02-11T10:21:50;99517.16;;;3.44;59.87
2841;BME280;53423;49.224;12.074;2023-02-11T10:24:20;99526.00;;;3.57;59.32
2841;BME280;53423;49.224;12.074;2023-02-11T10:26:50;99523.03;;;3.12;59.70
2841;BME280;53423;49.224;12.074;2023-02-11T10:29:33;99524.66;;;3.31;59.67
2841;BME280;53423;49.224;12.074;2023-02-11T10:32:10;99519.03;;;3.23;59.08
2841;BME280;53423;49.224;12.074;2023-02-11T10:34:41;99513.81;;;2.88;60.00
2841;BME280;53423;49.224;12.074;2023-02-11T10:37:11;99517.50;;;2.84;61.44
2841;BME280;53423;49.224;12.074;2023-02-11T10:39:40;99515.84;;;3.35;59.35
2841;BME280;53423;49.224;12.074;2023-02-11T10:42:11;99507.38;;;3.32;58.91
2841;BME280;53423;49.224;12.074;2023-02-11T10:44:42;99511.28;;;3.74;57.73
2841;BME280;53423;49.224;12.074;2023-02-11T10:47:18;99514.34;;;3.65;57.63
2841;BME280;53423;49.224;12.074;2023-02-11T10:49:49;99505.41;;;3.54;58.53
2841;BME280;53423;49.224;12.074;2023-02-11T10:52:19;99496.38;;;3.78;58.02
2841;BME280;53423;49.224;12.074;2023-02-11T10:54:58;99494.19;;;3.88;57.76
2841;BME280;53423;49.224;12.074;2023-02-11T10:57:31;99490.75;;;3.70;58.16
2841;BME280;53423;49.224;12.074;2023-02-11T11:00:04;99503.81;;;3.68;58.87
2841;BME280;53423;49.224;12.074;2023-02-11T11:02:34;99512.63;;;3.99;57.45
2841;BME280;53423;49.224;12.074;2023-02-11T11:05:14;99508.56;;;4.10;57.03
2841;BME280;53423;49.224;12.074;2023-02-11T11:07:52;99507.56;;;4.13;56.33
2841;BME280;53423;49.224;12.074;2023-02-11T11:10:28;99512.75;;;4.13;56.79
2841;BME280;53423;49.224;12.074;2023-02-11T11:12:56;99530.50;;;3.88;57.35
2841;BME280;53423;49.224;12.074;2023-02-11T11:15:25;99524.91;;;4.12;56.56
2841;BME280;53423;49.224;12.074;2023-02-11T11:18:10;99512.66;;;4.31;56.54
2841;BME280;53423;49.224;12.074;2023-02-11T11:20:56;99515.69;;;4.39;56.48
2841;BME280;53423;49.224;12.074;2023-02-11T11:23:26;99508.72;;;4.55;56.25
2841;BME280;53423;49.224;12.074;2023-02-11T11:26:02;99496.03;;;4.82;55.03
2841;BME280;53423;49.224;12.074;2023-02-11T11:28:33;99498.13;;;4.60;56.49
2841;BME280;53423;49.224;12.074;2023-02-11T11:31:05;99488.41;;;4.79;56.21
2841;BME280;53423;49.224;12.074;2023-02-11T11:33:40;99490.50;;;4.57;56.76
2841;BME280;53423;49.224;12.074;2023-02-11T11:36:13;99495.94;;;4.37;56.97
2841;BME280;53423;49.224;12.074;2023-02-11T11:38:44;99487.22;;;4.69;55.75
2841;BME280;53423;49.224;12.074;2023-02-11T11:41:17;99493.25;;;4.06;57.84
2841;BME280;53423;49.224;12.074;2023-02-11T11:43:59;99485.88;;;4.77;55.80
2841;BME280;53423;49.224;12.074;2023-02-11T11:46:31;99491.41;;;5.02;55.02
2841;BME280;53423;49.224;12.074;2023-02-11T11:49:11;99491.38;;;4.40;55.91
2841;BME280;53423;49.224;12.074;2023-02-11T11:51:48;99488.91;;;4.06;56.95
2841;BME280;53423;49.224;12.074;2023-02-11T11:54:19;99485.69;;;4.01;57.55
2841;BME280;53423;49.224;12.074;2023-02-11T11:56:51;99475.44;;;4.15;57.08
2841;BME280;53423;49.224;12.074;2023-02-11T11:59:21;99480.56;;;4.32;56.61
2841;BME280;53423;49.224;12.074;2023-02-11T12:02:21;99462.13;;;3.89;57.92
2841;BME280;53423;49.224;12.074;2023-02-11T12:05:00;99444.53;;;4.11;58.00
2841;BME280;53423;49.224;12.074;2023-02-11T12:07:48;99447.59;;;4.34;57.36
2841;BME280;53423;49.224;12.074;2023-02-11T12:10:38;99432.19;;;4.78;55.99
2841;BME280;53423;49.224;12.074;2023-02-11T12:13:18;99438.03;;;4.97;55.94
2841;BME280;53423;49.224;12.074;2023-02-11T12:15:56;99441.13;;;5.33;54.68
2841;BME280;53423;49.224;12.074;2023-02-11T12:18:43;99444.69;;;5.46;54.49
2841;BME280;53423;49.224;12.074;2023-02-11T12:21:26;99439.09;;;5.38;54.51
2841;BME280;53423;49.224;12.074;2023-02-11T12:24:05;99426.97;;;4.93;55.80
2841;BME280;53423;49.224;12.074;2023-02-11T12:26:42;99428.53;;;5.12;55.05
2841;BME280;53423;49.224;12.074;2023-02-11T12:29:19;99429.81;;;4.89;54.81
2841;BME280;53423;49.224;12.074;2023-02-11T12:32:03;99429.09;;;5.17;54.74
2841;BME280;53423;49.224;12.074;2023-02-11T12:35:01;99430.50;;;5.52;54.44
2841;BME280;53423;49.224;12.074;2023-02-11T12:37:44;99426.22;;;5.65;54.33
2841;BME280;53423;49.224;12.074;2023-02-11T12:40:18;99411.38;;;5.67;54.27
2841;BME280;53423;49.224;12.074;2023-02-11T12:42:58;99405.84;;;5.43;54.80
2841;BME280;53423;49.224;12.074;2023-02-11T12:46:06;99397.97;;;5.45;54.02
2841;BME280;53423;49.224;12.074;2023-02-11T12:51:39;99409.84;;;5.92;53.07
2841;BME280;53423;49.224;12.074;2023-02-11T12:54:23;99408.66;;;5.98;53.02
2841;BME280;53423;49.224;12.074;2023-02-11T12:56:59;99403.72;;;5.93;54.41
2841;BME280;53423;49.224;12.074;2023-02-11T12:59:40;99414.53;;;6.42;52.98
2841;BME280;53423;49.224;12.074;2023-02-11T13:02:16;99418.34;;;6.51;52.49
2841;BME280;53423;49.224;12.074;2023-02-11T13:04:49;99413.28;;;6.07;52.82
2841;BME280;53423;49.224;12.074;2023-02-11T13:07:24;99419.53;;;6.59;52.05
2841;BME280;53423;49.224;12.074;2023-02-11T13:09:56;99421.56;;;6.68;50.95
2841;BME280;53423;49.224;12.074;2023-02-11T13:12:31;99416.56;;;6.65;50.75
2841;BME280;53423;49.224;12.074;2023-02-11T13:15:17;99422.00;;;6.48;51.34
2841;BME280;53423;49.224;12.074;2023-02-11T13:17:52;99420.16;;;6.36;51.10
2841;BME280;53423;49.224;12.074;2023-02-11T13:20:34;99416.44;;;6.26;52.61
2841;BME280;53423;49.224;12.074;2023-02-11T13:23:12;99418.81;;;5.59;54.78
2841;BME280;53423;49.224;12.074;2023-02-11T13:25:46;99413.06;;;5.68;54.07
2841;BME280;53423;49.224;12.074;2023-02-11T13:28:26;99410.63;;;5.51;54.69
2841;BME280;53423;49.224;12.074;2023-02-11T13:30:58;99409.16;;;5.61;54.44
2841;BME280;53423;49.224;12.074;2023-02-11T13:33:34;99400.84;;;5.98;53.52
2841;BME280;53423;49.224;12.074;2023-02-11T13:36:19;99398.09;;;5.71;53.87
2841;BME280;53423;49.224;12.074;2023-02-11T13:38:53;99404.16;;;6.00;52.66
2841;BME280;53423;49.224;12.074;2023-02-11T13:41:25;99397.13;;;5.88;53.94
2841;BME280;53423;49.224;12.074;2023-02-11T13:44:00;99391.91;;;6.16;53.91